• Join FlightAware (Why Join?)
  • Login
  • US Flag 
04:30AM EDT


 

Airport Tracker/Info


-or-


 

Live Flight TrackerFlight Track Log ✈ SWA902 ✈ 27-Jul-2013 ✈ KMCI - KDEN

Flight Track Log - Related Links

Times and Time Zones

All times are in EDT time to prevent confusion due to time zone crossing. See the SWA902 flight status page for this flight to view local times or setup timezone preferences in your user account.

Time Position Orientation Groundspeed Altitude Reporting Facility
EDT Latitude Longitude Course Direction KTS MPH feet Rate Location/Type
08:28AM 39.3333 -94.7167 329° Northwest 172 198 1,700  Level Kansas City TRACON
08:30AM 39.3811 -94.7542 329° Northwest 209 241 4,700 2,400 Climbing Kansas City Center
08:31AM 39.3628 -94.8347 254° West 246 283 7,100 2,340 Climbing Kansas City Center
08:32AM 39.3472 -94.9247 257° West 269 310 9,600 2,460 Climbing Kansas City Center
08:33AM 39.3264 -95.0333 256° West 279 321 12,200 2,340 Climbing Kansas City Center
08:34AM 39.3069 -95.1408 257° West 305 351 14,400 2,160 Climbing Kansas City Center
08:35AM 39.2842 -95.2619 256° West 324 373 16,700 2,040 Climbing Kansas City Center
08:36AM 39.2603 -95.3767 255° West 332 382 18,600 1,740 Climbing Kansas City Center
08:37AM 39.2367 -95.4947 256° West 336 387 20,300 1,440 Climbing Kansas City Center
08:38AM 39.2133 -95.6150 256° West 361 415 21,600 1,380 Climbing Kansas City Center
08:39AM 39.1878 -95.7431 256° West 381 438 23,200 1,680 Climbing Kansas City Center
08:40AM 39.1567 -95.8947 255° West 393 452 25,100 1,800 Climbing Kansas City Center
08:41AM 39.0944 -96.0086 235° Southwest 418 481 26,900 2,160 Climbing Kansas City Center
08:42AM 39.0008 -96.1203 223° Southwest 414 476 29,500 1,740 Climbing Kansas City Center
08:43AM 38.9242 -96.2136 223° Southwest 401 461 30,500 840 Climbing Kansas City Center
08:44AM 38.8453 -96.3094 223° Southwest 405 466 31,300 1,020 Climbing Kansas City Center
08:45AM 38.7503 -96.4200 222° Southwest 411 473 32,600 1,140 Climbing Kansas City Center
08:46AM 38.6694 -96.5139 222° Southwest 410 472 33,700 660 Climbing Kansas City Center
08:47AM 38.5761 -96.6244 223° Southwest 410 472 34,000 120 Climbing Kansas City Center
08:48AM 38.4947 -96.7192 222° Southwest 414 476 34,000  Level Kansas City Center
08:49AM 38.4114 -96.8178 223° Southwest 418 481 34,000 240 Level Kansas City Center
08:50AM 38.3244 -96.9194 223° Southwest 422 486 34,600 600 Climbing Kansas City Center
08:51AM 38.2667 -97.0378 238° Southwest 402 463 35,300 660 Climbing Kansas City Center
08:52AM 38.2678 -97.1675 271° West 371 427 36,000 300 Climbing Kansas City Center
08:53AM 38.2675 -97.2983 270° West 370 426 36,000  Level Kansas City Center
08:54AM 38.2678 -97.4544 270° West 371 427 36,000  Level Kansas City Center
08:55AM 38.2672 -97.5850 270° West 372 428 36,000  Level Kansas City Center
08:56AM 38.2672 -97.7164 270° West 374 430 36,000  Level Kansas City Center
08:57AM 38.2667 -97.8475 270° West 375 432 36,000  Level Kansas City Center
08:58AM 38.2664 -97.9797 270° West 376 433 36,000  Level Kansas City Center
08:59AM 38.2661 -98.1119 270° West 376 433 36,000  Level Kansas City Center
09:00AM 38.2642 -98.2431 269° West 375 432 36,000  Level Kansas City Center
09:01AM 38.2631 -98.3758 269° West 377 434 36,000  Level Kansas City Center
09:02AM 38.2625 -98.5342 270° West 376 433 36,000  Level Kansas City Center
09:03AM 38.2608 -98.6653 269° West 372 428 36,000  Level Kansas City Center
09:04AM 38.2589 -98.7964 269° West 373 429 36,000  Level Kansas City Center
09:05AM 38.2564 -98.9267 269° West 370 426 36,000  Level Kansas City Center
09:06AM 38.2547 -99.0578 269° West 371 427 36,000  Level Kansas City Center
09:07AM 38.2531 -99.1861 269° West 366 421 36,000  Level Kansas City Center
09:08AM 38.2517 -99.3156 269° West 366 421 36,000  Level Kansas City Center
09:09AM 38.2486 -99.4447 268° West 365 420 36,000  Level Kansas City Center
09:10AM 38.2461 -99.5842 269° West 361 415 36,000  Level Kansas City Center
09:11AM 38.2428 -99.7267 268° West 362 417 36,000  Level Kansas City Center
09:12AM 38.2397 -99.8489 268° West 362 417 36,000  Level Kansas City Center
09:13AM 38.2367 -99.9914 268° West 361 415 36,000  Level Kansas City Center
09:14AM 38.2336 -100.1128 268° West 361 415 36,000  Level Kansas City Center
09:16AM 38.2311 -100.2344 269° West 361 415 36,000  Level Kansas City Center
09:17AM 38.2275 -100.3742 268° West 357 411 36,000  Level Kansas City Center
09:18AM 38.2244 -100.4944 268° West 357 411 36,000  Level Kansas City Center
09:19AM 38.2200 -100.6328 268° West 354 407 36,000  Level Kansas City Center
09:20AM 38.2161 -100.7517 268° West 352 405 36,000  Level Kansas City Center
09:21AM 38.2131 -100.8711 268° West 353 406 36,000  Level Kansas City Center
09:22AM 38.2089 -101.0100 268° West 355 409 36,000  Level Kansas City Center
09:23AM 38.2042 -101.1281 267° West 352 405 36,000  Level Kansas City Center
09:23AM 38.2017 -101.2067 268° West 353 406 36,000  Level Denver Center
09:24AM 38.1978 -101.3253 268° West 353 406 36,000  Level Denver Center
09:25AM 38.2083 -101.4583 276° West 341 392 36,000  Level Denver Center
09:26AM 38.2575 -101.5564 303° West 344 396 36,000  Level Denver Center
09:27AM 38.3067 -101.6561 302° West 348 400 36,000  Level Denver Center
09:28AM 38.3633 -101.7719 302° West 347 399 36,000  Level Denver Center
09:29AM 38.4125 -101.8708 302° West 347 399 36,000  Level Denver Center
09:30AM 38.4622 -101.9703 303° West 347 399 36,000  Level Denver Center
09:31AM 38.5192 -102.0875 302° West 347 399 36,000  Level Denver Center
09:32AM 38.5689 -102.1878 302° West 348 400 36,000  Level Denver Center
09:33AM 38.6239 -102.3044 301° West 345 397 36,000  Level Denver Center
09:34AM 38.6722 -102.4042 302° West 345 397 36,000  Level Denver Center
09:35AM 38.7208 -102.5036 302° West 344 396 36,000  Level Denver Center
09:36AM 38.7778 -102.6211 302° West 348 400 36,000  Level Denver Center
09:37AM 38.8261 -102.7217 302° West 347 399 36,000  Level Denver Center
09:38AM 38.8739 -102.8236 301° West 348 400 36,000  Level Denver Center
09:39AM 38.9250 -102.9300 302° West 350 403 36,000 -900 Level Denver Center
09:41AM 38.9753 -103.0364 301° West 351 404 34,100 -2,220 Descending Denver Center
09:42AM 39.0356 -103.1658 301° West 351 404 31,100 -2,220 Descending Denver Center
09:43AM 39.0750 -103.2494 301° West 346 398 29,600 -2,100 Descending Denver Center
09:44AM 39.1428 -103.3931 301° West 336 387 26,900 -2,100 Descending Denver Center
09:45AM 39.1844 -103.4800 302° West 351 404 25,300 -2,100 Descending Denver Center
09:46AM 39.2486 -103.6183 301° West 374 430 22,700 -2,280 Descending Denver Center
09:47AM 39.3000 -103.7292 301° West 363 418 20,700 -1,920 Descending Denver Center
09:48AM 39.3478 -103.8347 300° West 347 399 18,900 -1,560 Descending Denver Center
09:49AM 39.3944 -103.9372 301° West 333 383 17,600 -1,500 Descending Denver Center
09:50AM 39.4203 -104.0533 286° West 307 353 15,900 -1,740 Descending Denver Center
09:51AM 39.4472 -104.1567 289° West 304 350 14,100 -1,680 Descending Denver Center
09:52AM 39.4728 -104.2572 288° West 294 338 12,500 -1,560 Descending Denver Center
09:53AM 39.5111 -104.3478 299° West 289 333 11,000 -1,680 Descending Denver Center
09:54AM 39.5725 -104.4236 316° Northwest 284 327 9,100 -1,680 Descending Denver Center
09:55AM 39.6297 -104.4961 316° Northwest 284 327 7,700 -1,080 Descending Denver Center
09:56AM 39.6825 -104.5594 317° Northwest 264 304 7,000 -360 Descending Denver Center
09:57AM 39.7228 -104.6094 316° Northwest 197 227 7,000 -240 Level Denver Center
09:58AM 39.7667 -104.6419 330° Northwest 170 196 6,600 -600 Descending Denver Center
09:59AM 39.8075 -104.6419 360° North 150 173 5,900 -660 Descending Denver Center
10:00AM 39.8497 -104.6414 North 140 161 5,300 -600 Descending Denver Center
10:02AM 39.8500 -104.6667 339° North  Level FlightAware Approximate
10:09AM 39.8617 -104.6732 339° North  Level Estimated
10:10AM 39.8617 -104.6732 339° North  Level Estimated